createdAt,value
2022-08-24T00:00:36.824Z,9.50
2022-08-24T00:03:03.624Z,5.40
2022-08-24T00:05:30.522Z,8.40
2022-08-24T00:07:57.372Z,9.93
2022-08-24T00:10:26.480Z,6.27
2022-08-24T00:12:53.504Z,4.40
2022-08-24T00:15:20.552Z,4.40
2022-08-24T00:17:47.240Z,6.53
2022-08-24T00:20:14.454Z,9.17
2022-08-24T00:22:41.848Z,7.20
2022-08-24T00:25:11.552Z,9.63
2022-08-24T00:27:39.787Z,4.37
2022-08-24T00:30:08.785Z,7.50
2022-08-24T00:32:37.646Z,6.63
2022-08-24T00:35:06.221Z,6.70
2022-08-24T00:37:33.744Z,4.50
2022-08-24T00:40:00.467Z,7.63
2022-08-24T00:42:27.633Z,5.90
2022-08-24T00:44:54.312Z,8.33
2022-08-24T00:47:47.645Z,8.10
2022-08-24T00:50:22.034Z,8.33
2022-08-24T00:52:57.940Z,6.93
2022-08-24T00:55:32.461Z,9.37
2022-08-24T00:58:07.981Z,10.80
2022-08-24T01:00:43.402Z,6.43
2022-08-24T01:03:16.402Z,7.67
2022-08-24T01:05:43.894Z,7.80
2022-08-24T01:08:13.262Z,9.17
2022-08-24T01:10:55.067Z,7.17
2022-08-24T01:13:22.962Z,8.90
2022-08-24T01:15:52.563Z,11.80
2022-08-24T01:18:41.932Z,13.67
2022-08-24T01:21:16.777Z,7.70
2022-08-24T01:23:48.488Z,10.53
2022-08-24T01:26:32.940Z,6.17
2022-08-24T01:29:26.002Z,5.63
2022-08-24T01:31:53.638Z,5.70
2022-08-24T01:34:21.482Z,14.20
2022-08-24T01:36:51.488Z,7.10
2022-08-24T01:39:43.831Z,4.93
2022-08-24T01:42:11.790Z,5.77
2022-08-24T01:44:40.035Z,7.90
2022-08-24T01:47:08.947Z,7.20
2022-08-24T01:49:40.093Z,7.50
2022-08-24T01:52:09.697Z,10.87
2022-08-24T01:54:36.388Z,7.20
2022-08-24T01:57:03.898Z,5.87
2022-08-24T01:59:30.674Z,9.47
2022-08-24T02:02:04.438Z,14.70
2022-08-24T02:04:34.082Z,9.30
2022-08-24T02:07:00.705Z,15.83
2022-08-24T02:09:27.982Z,6.20
2022-08-24T02:11:59.929Z,8.83
2022-08-24T02:14:28.391Z,9.87
2022-08-24T02:16:57.613Z,9.73
2022-08-24T02:19:27.157Z,8.57
2022-08-24T02:21:53.963Z,9.37
2022-08-24T02:24:21.102Z,8.57
2022-08-24T02:26:49.113Z,7.80
2022-08-24T02:29:16.653Z,7.57
2022-08-24T02:31:43.802Z,8.00
2022-08-24T02:34:10.574Z,8.43
2022-08-24T02:36:38.680Z,9.10
2022-08-24T02:39:06.754Z,5.73
2022-08-24T02:41:34.506Z,11.40
2022-08-24T02:44:01.262Z,9.30
2022-08-24T02:46:30.235Z,9.80
2022-08-24T02:49:10.498Z,9.17
2022-08-24T02:51:44.368Z,8.43
2022-08-24T02:54:13.192Z,15.73
2022-08-24T02:56:39.812Z,12.20
2022-08-24T02:59:06.934Z,14.60
2022-08-24T03:01:33.775Z,6.70
2022-08-24T03:04:00.559Z,7.40
2022-08-24T03:06:27.331Z,8.00
2022-08-24T03:08:56.133Z,10.77
2022-08-24T03:11:27.739Z,6.10
2022-08-24T03:13:56.224Z,10.20
2022-08-24T03:16:22.965Z,7.43
2022-08-24T03:18:49.869Z,8.70
2022-08-24T03:21:17.223Z,8.30
2022-08-24T03:23:44.078Z,9.53
2022-08-24T03:26:11.550Z,7.57
2022-08-24T03:28:38.366Z,7.87
2022-08-24T03:31:05.254Z,15.67
2022-08-24T03:33:32.407Z,8.87
2022-08-24T03:35:59.605Z,8.57
2022-08-24T03:38:26.269Z,10.23
2022-08-24T03:40:53.111Z,12.90
2022-08-24T03:43:38.332Z,10.80
2022-08-24T03:46:07.766Z,12.53
2022-08-24T03:48:35.678Z,7.83
2022-08-24T03:51:02.641Z,8.90
2022-08-24T03:53:29.309Z,8.20
2022-08-24T03:55:56.023Z,8.07
2022-08-24T03:58:22.660Z,10.40
2022-08-24T04:00:49.867Z,15.40
2022-08-24T04:03:16.708Z,10.40
2022-08-24T04:05:43.511Z,9.17
2022-08-24T04:08:11.197Z,16.60
2022-08-24T04:10:43.486Z,11.30
2022-08-24T04:13:10.157Z,10.87
2022-08-24T04:15:40.683Z,8.00
2022-08-24T04:18:07.515Z,10.27
2022-08-24T04:20:39.923Z,9.13
2022-08-24T04:23:08.213Z,9.30
2022-08-24T04:25:45.512Z,9.90
2022-08-24T04:28:14.611Z,11.17
2022-08-24T04:30:43.346Z,16.77
2022-08-24T04:33:11.892Z,8.50
2022-08-24T04:35:45.295Z,7.57
2022-08-24T04:38:12.107Z,12.03
2022-08-24T04:40:41.001Z,10.60
2022-08-24T04:43:08.572Z,8.10
2022-08-24T04:45:40.886Z,18.00
2022-08-24T04:48:08.267Z,10.53
2022-08-24T04:50:36.383Z,7.83
2022-08-24T04:53:04.713Z,12.47
2022-08-24T04:55:32.445Z,8.10
2022-08-24T04:57:59.174Z,10.43
2022-08-24T05:00:25.949Z,9.47
2022-08-24T05:02:52.843Z,8.20
2022-08-24T05:05:19.548Z,12.77
2022-08-24T05:07:46.320Z,10.37
2022-08-24T05:10:14.109Z,14.00
2022-08-24T05:12:43.064Z,23.23
2022-08-24T05:15:10.180Z,11.90
2022-08-24T05:17:37.012Z,18.93
2022-08-24T05:20:04.589Z,15.30
2022-08-24T05:22:31.236Z,9.63
2022-08-24T05:24:59.237Z,19.77
2022-08-24T05:27:26.033Z,13.47
2022-08-24T05:29:54.067Z,20.30
2022-08-24T05:32:20.851Z,14.90
2022-08-24T05:34:47.658Z,24.37
2022-08-24T05:37:14.515Z,20.30
2022-08-24T05:39:41.471Z,17.60
2022-08-24T05:42:08.863Z,13.80
2022-08-24T05:44:35.558Z,11.73
2022-08-24T05:47:02.893Z,19.40
2022-08-24T05:49:29.695Z,32.67
2022-08-24T05:51:56.486Z,19.73
2022-08-24T05:54:25.135Z,16.57
2022-08-24T05:56:51.972Z,21.13
2022-08-24T05:59:19.699Z,22.63
2022-08-24T06:01:46.690Z,19.10
2022-08-24T06:04:13.947Z,19.90
2022-08-24T06:06:40.685Z,17.30
2022-08-24T06:09:07.385Z,18.60
2022-08-24T06:11:37.614Z,21.80
2022-08-24T06:14:09.511Z,18.17
2022-08-24T06:16:41.154Z,17.80
2022-08-24T06:19:10.591Z,23.93
2022-08-24T06:21:37.971Z,21.33
2022-08-24T06:24:06.413Z,22.13
2022-08-24T06:26:52.183Z,17.87
2022-08-24T06:29:20.119Z,19.93
2022-08-24T06:31:48.592Z,17.63
2022-08-24T06:34:22.627Z,23.70
2022-08-24T06:36:49.355Z,18.33
2022-08-24T06:39:16.338Z,17.90
2022-08-24T06:41:44.325Z,15.13
2022-08-24T06:44:11.208Z,16.97
2022-08-24T06:46:38.215Z,16.90
2022-08-24T06:49:05.565Z,21.63
2022-08-24T06:51:32.554Z,17.93
2022-08-24T06:53:59.391Z,20.03
2022-08-24T06:56:26.275Z,16.23
2022-08-24T06:58:52.988Z,22.17
2022-08-24T07:01:22.934Z,17.80
2022-08-24T07:03:50.264Z,13.67
2022-08-24T07:06:18.119Z,13.90
2022-08-24T07:08:45.073Z,13.70
2022-08-24T07:11:14.679Z,11.80
2022-08-24T07:13:42.352Z,11.00
2022-08-24T07:16:12.223Z,12.33
2022-08-24T07:18:41.248Z,14.20
2022-08-24T07:21:10.254Z,10.53
2022-08-24T07:23:41.898Z,11.30
2022-08-24T07:26:20.894Z,16.23
2022-08-24T07:29:01.196Z,14.00
2022-08-24T07:31:30.065Z,10.20
2022-08-24T07:34:00.103Z,15.23
2022-08-24T07:36:28.482Z,13.60
2022-08-24T07:38:56.251Z,9.53
2022-08-24T07:44:15.874Z,10.00
2022-08-24T07:46:43.052Z,11.93
2022-08-24T07:49:31.645Z,13.47
2022-08-24T07:51:58.706Z,11.93
2022-08-24T07:54:25.717Z,22.43
2022-08-24T07:56:52.498Z,10.97
2022-08-24T07:59:19.182Z,13.67
2022-08-24T08:01:46.235Z,7.70
2022-08-24T08:04:14.153Z,15.13
2022-08-24T08:06:41.992Z,13.30
2022-08-24T08:09:08.697Z,13.20
2022-08-24T08:11:35.408Z,12.30
2022-08-24T08:14:02.167Z,17.27
2022-08-24T08:16:28.924Z,13.53
2022-08-24T08:19:11.487Z,10.40
2022-08-24T08:22:02.386Z,11.73
2022-08-24T08:24:29.142Z,12.77
2022-08-24T08:26:57.598Z,11.43
2022-08-24T08:29:25.449Z,20.47
2022-08-24T08:31:52.408Z,10.73
2022-08-24T08:34:19.732Z,10.60
2022-08-24T08:36:47.046Z,11.02
2022-08-24T08:39:15.903Z,10.47
2022-08-24T08:42:02.022Z,8.17
2022-08-24T08:44:50.685Z,3.50
2022-08-24T08:47:44.528Z,5.50
2022-08-24T08:50:27.560Z,10.70
2022-08-24T08:52:57.422Z,7.33
2022-08-24T08:55:39.765Z,4.30
2022-08-24T08:58:06.689Z,6.13
2022-08-24T09:01:13.435Z,3.87
2022-08-24T09:04:04.465Z,4.68
2022-08-24T09:06:35.670Z,6.82
2022-08-24T09:09:25.302Z,4.65
2022-08-24T09:12:00.161Z,5.55
2022-08-24T09:14:35.971Z,4.18
2022-08-24T09:17:02.807Z,2.72
2022-08-24T09:20:06.709Z,2.40
2022-08-24T09:22:39.868Z,6.43
2022-08-24T09:25:57.676Z,4.30
2022-08-24T09:28:34.627Z,5.20
2022-08-24T09:34:04.162Z,3.92
2022-08-24T09:36:51.986Z,3.80
2022-08-24T09:39:34.868Z,7.40
2022-08-24T09:42:50.741Z,4.82
2022-08-24T09:45:48.406Z,4.88
2022-08-24T09:48:24.550Z,3.85
2022-08-24T09:51:15.585Z,6.32
2022-08-24T09:54:04.135Z,6.90
2022-08-24T09:57:11.563Z,2.05
2022-08-24T10:00:18.651Z,2.95
2022-08-24T10:03:13.630Z,14.30
2022-08-24T10:06:08.588Z,5.40
2022-08-24T10:08:51.196Z,5.95
2022-08-24T10:11:34.886Z,4.88
2022-08-24T10:14:39.497Z,3.95
2022-08-24T10:17:37.592Z,4.45
2022-08-24T10:20:26.301Z,3.17
2022-08-24T10:23:14.940Z,2.38
2022-08-24T10:26:03.166Z,2.38
2022-08-24T10:29:17.619Z,7.50
2022-08-24T10:31:55.945Z,4.40
2022-08-24T10:34:46.562Z,3.25
2022-08-24T10:37:34.301Z,1.73
2022-08-24T10:40:34.512Z,5.03
2022-08-24T10:43:36.095Z,4.80
2022-08-24T10:46:34.812Z,2.83
2022-08-24T10:49:32.461Z,2.75
2022-08-24T10:52:08.540Z,3.65
2022-08-24T10:54:36.506Z,7.50
2022-08-24T10:57:12.243Z,2.17
2022-08-24T11:00:18.219Z,2.70
2022-08-24T11:03:04.753Z,3.17
2022-08-24T11:05:55.257Z,1.55
2022-08-24T11:08:21.928Z,4.47
2022-08-24T11:11:04.762Z,8.65
2022-08-24T11:13:31.450Z,3.22
2022-08-24T11:16:01.386Z,5.32
2022-08-24T11:18:49.371Z,4.03
2022-08-24T11:21:53.627Z,4.70
2022-08-24T11:24:41.515Z,2.88
2022-08-24T11:27:32.841Z,2.28
2022-08-24T11:30:05.125Z,5.97
2022-08-24T11:32:43.576Z,2.10
2022-08-24T11:35:17.478Z,2.85
2022-08-24T11:37:46.727Z,2.55
2022-08-24T11:40:14.870Z,3.17
2022-08-24T11:43:07.487Z,3.72
2022-08-24T11:46:04.297Z,2.88
2022-08-24T11:48:50.063Z,2.00
2022-08-24T11:51:29.130Z,2.83
2022-08-24T11:54:34.291Z,2.08
2022-08-24T11:57:09.246Z,3.90
2022-08-24T12:00:10.487Z,2.15
2022-08-24T12:02:54.306Z,1.88
2022-08-24T12:05:25.517Z,3.60
2022-08-24T12:08:26.081Z,6.50
2022-08-24T12:10:52.703Z,7.25
2022-08-24T12:13:38.118Z,3.45
2022-08-24T12:16:44.206Z,8.70
2022-08-24T12:19:33.317Z,2.92
2022-08-24T12:22:05.912Z,2.08
2022-08-24T12:24:49.257Z,4.53
2022-08-24T12:27:26.633Z,8.93
2022-08-24T12:30:05.642Z,3.92
2022-08-24T12:32:57.846Z,3.65
2022-08-24T12:35:45.312Z,2.65
2022-08-24T12:38:28.457Z,1.70
2022-08-24T12:41:28.076Z,4.03
2022-08-24T12:44:09.637Z,3.75
2022-08-24T12:46:37.415Z,2.55
2022-08-24T12:49:25.548Z,3.08
2022-08-24T12:52:13.497Z,2.67
2022-08-24T12:55:01.003Z,3.00
2022-08-24T12:57:39.625Z,3.22
2022-08-24T13:00:16.290Z,7.38
2022-08-24T13:02:47.913Z,3.47
2022-08-24T13:05:20.068Z,1.90
2022-08-24T13:07:50.403Z,2.55
2022-08-24T13:10:23.482Z,4.43
2022-08-24T13:13:10.289Z,2.17
2022-08-24T13:15:37.579Z,3.92
2022-08-24T13:18:10.984Z,2.58
2022-08-24T13:20:44.357Z,4.38
2022-08-24T13:23:11.079Z,3.90
2022-08-24T13:25:58.011Z,2.80
2022-08-24T13:28:24.583Z,4.88
2022-08-24T13:31:06.508Z,2.55
2022-08-24T13:33:49.972Z,2.25
2022-08-24T13:36:32.422Z,3.03
2022-08-24T13:39:37.111Z,4.88
2022-08-24T13:42:31.322Z,5.60
2022-08-24T13:45:12.583Z,2.55
2022-08-24T13:47:59.920Z,2.88
2022-08-24T13:50:56.602Z,3.53
2022-08-24T13:54:01.072Z,1.75
2022-08-24T13:56:39.029Z,2.83
2022-08-24T13:59:33.224Z,2.53
2022-08-24T14:02:14.770Z,4.80
2022-08-24T14:05:09.201Z,2.28
2022-08-24T14:07:56.397Z,3.83
2022-08-24T14:10:32.233Z,4.15
2022-08-24T14:13:26.865Z,2.75
2022-08-24T14:16:23.647Z,2.20
2022-08-24T14:19:14.140Z,1.80
2022-08-24T14:22:00.883Z,4.07
2022-08-24T14:24:46.374Z,1.90
2022-08-24T14:27:37.386Z,2.22
2022-08-24T14:30:19.075Z,2.35
2022-08-24T14:33:00.447Z,3.40
2022-08-24T14:35:36.291Z,3.03
2022-08-24T14:38:24.392Z,4.90
2022-08-24T14:41:06.052Z,2.53
2022-08-24T14:44:07.938Z,2.83
2022-08-24T14:46:50.349Z,9.27
2022-08-24T14:49:24.602Z,2.53
2022-08-24T14:52:10.974Z,3.03
2022-08-24T14:55:16.083Z,3.03
2022-08-24T14:58:05.241Z,2.90
2022-08-24T15:01:11.558Z,1.80
2022-08-24T15:04:37.048Z,2.00
2022-08-24T15:07:25.767Z,3.03
2022-08-24T15:09:53.906Z,4.82
2022-08-24T15:12:27.426Z,3.85
2022-08-24T15:15:07.540Z,2.75
2022-08-24T15:18:15.646Z,3.40
2022-08-24T15:21:01.342Z,1.65
2022-08-24T15:23:53.103Z,2.70
2022-08-24T15:26:38.116Z,2.95
2022-08-24T15:29:21.086Z,5.22
2022-08-24T15:32:07.788Z,2.72
2022-08-24T15:34:49.460Z,3.47
2022-08-24T15:37:28.689Z,2.67
2022-08-24T15:39:55.443Z,3.33
2022-08-24T15:42:22.528Z,2.75
2022-08-24T15:44:50.763Z,2.28
2022-08-24T15:47:28.502Z,3.70
2022-08-24T15:49:58.459Z,4.22
2022-08-24T15:52:40.334Z,2.83
2022-08-24T15:55:14.883Z,2.58
2022-08-24T15:57:44.365Z,2.63
2022-08-24T16:00:43.901Z,2.33
2022-08-24T16:03:45.052Z,2.33
2022-08-24T16:06:19.858Z,3.97
2022-08-24T16:09:20.089Z,5.93
2022-08-24T16:12:09.940Z,3.28
2022-08-24T16:14:47.533Z,4.72
2022-08-24T16:17:26.423Z,2.95
2022-08-24T16:20:00.366Z,2.05
2022-08-24T16:22:30.237Z,3.20
2022-08-24T16:25:21.555Z,5.30
2022-08-24T16:27:54.005Z,2.95
2022-08-24T16:30:55.840Z,3.22
2022-08-24T16:33:34.604Z,2.25
2022-08-24T16:36:12.648Z,2.63
2022-08-24T16:38:46.179Z,2.35
2022-08-24T16:41:17.329Z,3.15
2022-08-24T16:43:45.695Z,2.03
2022-08-24T16:46:13.540Z,2.45
2022-08-24T16:48:40.852Z,4.70
2022-08-24T16:51:07.809Z,3.67
2022-08-24T16:53:35.266Z,5.22
2022-08-24T16:56:04.236Z,3.05
2022-08-24T16:58:33.310Z,2.72
2022-08-24T17:01:01.187Z,4.25
2022-08-24T17:03:29.247Z,2.40
2022-08-24T17:05:57.149Z,4.78
2022-08-24T17:08:24.748Z,3.85
2022-08-24T17:10:51.469Z,2.35
2022-08-24T17:13:39.330Z,2.10
2022-08-24T17:16:05.317Z,3.80
2022-08-24T17:18:33.802Z,2.53
2022-08-24T17:21:01.297Z,9.30
2022-08-24T17:23:28.070Z,3.53
2022-08-24T17:25:54.726Z,5.45
2022-08-24T17:28:21.553Z,4.80
2022-08-24T17:30:51.375Z,8.07
2022-08-24T17:33:18.604Z,2.85
2022-08-24T17:35:45.607Z,6.93
2022-08-24T17:38:12.371Z,2.45
2022-08-24T17:40:39.056Z,2.28
2022-08-24T17:43:05.879Z,2.80
2022-08-24T17:45:32.802Z,7.28
2022-08-24T17:47:59.547Z,6.07
2022-08-24T17:50:28.306Z,5.53
2022-08-24T17:52:56.443Z,2.85
2022-08-24T17:55:27.424Z,2.50
2022-08-24T17:57:54.217Z,3.45
2022-08-24T18:00:21.029Z,2.83
2022-08-24T18:02:47.689Z,2.70
2022-08-24T18:05:14.886Z,2.22
2022-08-24T18:07:55.374Z,3.20
2022-08-24T18:10:32.138Z,2.25
2022-08-24T18:13:01.224Z,3.90
2022-08-24T18:15:35.924Z,4.95
2022-08-24T18:18:05.754Z,4.93
2022-08-24T18:20:38.485Z,8.52
2022-08-24T18:23:05.326Z,2.50
2022-08-24T18:25:43.593Z,3.97
2022-08-24T18:28:10.391Z,2.50
2022-08-24T18:30:40.524Z,3.90
2022-08-24T18:33:08.488Z,3.73
2022-08-24T18:35:35.768Z,2.90
2022-08-24T18:38:02.416Z,4.10
2022-08-24T18:40:33.089Z,3.60
2022-08-24T18:43:01.973Z,3.30
2022-08-24T18:45:31.426Z,4.13
2022-08-24T18:47:58.561Z,4.17
2022-08-24T18:50:28.450Z,6.87
2022-08-24T18:52:56.393Z,3.70
2022-08-24T18:55:24.300Z,4.77
2022-08-24T18:57:51.997Z,3.17
2022-08-24T19:00:18.984Z,4.07
2022-08-24T19:02:45.803Z,2.60
2022-08-24T19:05:16.346Z,3.00
2022-08-24T19:07:47.065Z,2.70
2022-08-24T19:10:17.662Z,3.47
2022-08-24T19:12:51.513Z,3.00
2022-08-24T19:15:34.566Z,3.20
2022-08-24T19:18:05.778Z,3.63
2022-08-24T19:20:33.857Z,4.23
2022-08-24T19:23:07.797Z,6.50
2022-08-24T19:25:35.954Z,4.47
2022-08-24T19:28:03.281Z,5.63
2022-08-24T19:30:30.021Z,3.73
2022-08-24T19:32:57.770Z,6.37
2022-08-24T19:35:24.666Z,5.50
2022-08-24T19:37:51.423Z,4.50
2022-08-24T19:40:20.842Z,8.03
2022-08-24T19:42:50.761Z,2.70
2022-08-24T19:45:40.807Z,3.33
2022-08-24T19:48:07.825Z,5.60
2022-08-24T19:50:36.111Z,2.87
2022-08-24T19:53:04.759Z,5.83
2022-08-24T19:55:32.628Z,6.37
2022-08-24T19:58:23.709Z,10.97
2022-08-24T20:01:11.089Z,3.50
2022-08-24T20:03:38.058Z,8.40
2022-08-24T20:06:04.935Z,10.60
2022-08-24T20:08:31.726Z,5.47
2022-08-24T20:11:00.454Z,4.23
2022-08-24T20:13:27.676Z,6.87
2022-08-24T20:15:56.119Z,4.20
2022-08-24T20:18:32.122Z,7.93
2022-08-24T20:20:59.490Z,5.50
2022-08-24T20:23:27.228Z,6.30
2022-08-24T20:25:55.959Z,3.60
2022-08-24T20:28:29.052Z,5.33
2022-08-24T20:30:57.465Z,7.33
2022-08-24T20:33:24.752Z,5.10
2022-08-24T20:35:51.468Z,8.80
2022-08-24T20:38:19.906Z,4.00
2022-08-24T20:40:47.515Z,4.20
2022-08-24T20:43:14.537Z,3.93
2022-08-24T20:45:41.606Z,7.47
2022-08-24T20:48:11.921Z,4.60
2022-08-24T20:50:43.036Z,7.97
2022-08-24T20:53:11.263Z,8.27
2022-08-24T20:55:41.872Z,9.63
2022-08-24T20:58:09.413Z,4.13
2022-08-24T21:00:36.720Z,4.40
2022-08-24T21:03:03.849Z,4.23
2022-08-24T21:05:30.697Z,4.40
2022-08-24T21:07:57.918Z,5.30
2022-08-24T21:10:26.408Z,5.93
2022-08-24T21:12:54.147Z,4.20
2022-08-24T21:15:22.466Z,5.43
2022-08-24T21:17:49.265Z,4.83
2022-08-24T21:20:16.445Z,9.30
2022-08-24T21:22:46.023Z,6.20
2022-08-24T21:25:14.309Z,8.50
2022-08-24T21:27:43.917Z,7.63
2022-08-24T21:30:13.584Z,6.23
2022-08-24T21:32:59.129Z,5.80
2022-08-24T21:35:26.268Z,3.80
2022-08-24T21:37:53.109Z,7.87
2022-08-24T21:40:22.072Z,4.00
2022-08-24T21:42:49.768Z,5.70
2022-08-24T21:45:16.890Z,5.47
2022-08-24T21:47:43.892Z,7.30
2022-08-24T21:50:11.774Z,4.57
2022-08-24T21:52:38.532Z,5.43
2022-08-24T21:55:10.554Z,6.43
2022-08-24T21:57:40.050Z,17.87
2022-08-24T22:00:12.010Z,5.07
2022-08-24T22:02:38.938Z,6.17
2022-08-24T22:05:06.555Z,7.93
2022-08-24T22:07:33.434Z,12.27
2022-08-24T22:10:00.194Z,5.80
2022-08-24T22:12:26.881Z,4.17
2022-08-24T22:14:53.637Z,5.97
2022-08-24T22:17:20.259Z,11.57
2022-08-24T22:19:46.930Z,6.43
2022-08-24T22:22:13.606Z,6.40
2022-08-24T22:24:40.235Z,3.60
2022-08-24T22:27:07.216Z,4.57
2022-08-24T22:29:34.415Z,8.50
2022-08-24T22:32:01.193Z,7.93
2022-08-24T22:34:27.864Z,4.90
2022-08-24T22:36:56.936Z,4.00
2022-08-24T22:39:23.574Z,5.73
2022-08-24T22:41:50.499Z,5.00
2022-08-24T22:44:20.327Z,6.00
2022-08-24T22:46:50.202Z,5.50
2022-08-24T22:49:18.823Z,5.50
2022-08-24T22:51:46.029Z,4.20
2022-08-24T22:54:14.014Z,5.53
2022-08-24T22:56:44.633Z,7.07
2022-08-24T22:59:16.872Z,5.43
2022-08-24T23:01:45.357Z,13.20
2022-08-24T23:04:15.746Z,3.70
2022-08-24T23:06:42.745Z,4.50
2022-08-24T23:09:10.107Z,5.07
2022-08-24T23:11:37.162Z,5.83
2022-08-24T23:14:06.796Z,6.93
2022-08-24T23:16:35.522Z,5.60
2022-08-24T23:19:20.705Z,6.00
2022-08-24T23:21:47.401Z,5.40
2022-08-24T23:24:14.374Z,7.53
2022-08-24T23:26:42.049Z,4.00
2022-08-24T23:29:11.493Z,4.27
2022-08-24T23:31:39.112Z,6.30
2022-08-24T23:34:07.865Z,4.63
2022-08-24T23:36:36.183Z,7.53
2022-08-24T23:39:04.548Z,4.90
2022-08-24T23:41:33.373Z,4.93
2022-08-24T23:44:02.212Z,7.30
2022-08-24T23:46:29.545Z,5.47
2022-08-24T23:48:57.926Z,11.83
2022-08-24T23:51:27.248Z,8.30
2022-08-24T23:53:54.342Z,4.37
2022-08-24T23:56:31.801Z,7.47
2022-08-24T23:59:01.255Z,6.97
